createdAt,value
2018-08-30T00:01:07.617Z,8.70
2018-08-30T00:03:10.962Z,8.20
2018-08-30T00:05:14.144Z,8.63
2018-08-30T00:07:17.332Z,8.60
2018-08-30T00:09:20.513Z,9.40
2018-08-30T00:11:23.736Z,9.37
2018-08-30T00:13:26.926Z,7.97
2018-08-30T00:15:30.481Z,8.30
2018-08-30T00:17:34.004Z,8.73
2018-08-30T00:19:37.228Z,8.73
2018-08-30T00:21:40.391Z,7.97
2018-08-30T00:23:43.622Z,9.93
2018-08-30T00:25:47.228Z,9.00
2018-08-30T00:27:50.388Z,8.70
2018-08-30T00:29:53.570Z,9.20
2018-08-30T00:31:56.752Z,8.67
2018-08-30T00:33:59.939Z,7.03
2018-08-30T00:36:03.572Z,9.73
2018-08-30T00:38:06.833Z,8.30
2018-08-30T00:40:10.704Z,10.03
2018-08-30T00:42:13.902Z,8.50
2018-08-30T00:44:17.671Z,9.03
2018-08-30T00:46:20.872Z,10.13
2018-08-30T00:48:24.107Z,10.47
2018-08-30T00:50:27.592Z,9.07
2018-08-30T00:52:30.852Z,11.30
2018-08-30T00:54:34.177Z,9.90
2018-08-30T00:56:37.372Z,8.30
2018-08-30T00:58:40.589Z,11.53
2018-08-30T01:00:43.781Z,11.30
2018-08-30T01:02:47.304Z,9.80
2018-08-30T01:04:50.520Z,10.03
2018-08-30T01:06:53.952Z,8.00
2018-08-30T01:08:57.155Z,11.43
2018-08-30T01:11:00.709Z,12.70
2018-08-30T01:13:03.889Z,11.57
2018-08-30T01:15:07.739Z,11.17
2018-08-30T01:17:11.093Z,11.33
2018-08-30T01:19:14.276Z,11.50
2018-08-30T01:21:17.477Z,12.50
2018-08-30T01:23:20.664Z,11.53
2018-08-30T01:25:23.893Z,9.90
2018-08-30T01:27:27.080Z,10.13
2018-08-30T01:29:30.555Z,11.63
2018-08-30T01:31:33.801Z,10.17
2018-08-30T01:33:37.117Z,8.83
2018-08-30T01:35:40.959Z,10.27
2018-08-30T01:37:44.512Z,11.60
2018-08-30T01:39:47.680Z,12.13
2018-08-30T01:41:50.880Z,11.67
2018-08-30T01:43:54.063Z,10.10
2018-08-30T01:45:57.272Z,8.43
2018-08-30T01:48:00.495Z,12.00
2018-08-30T01:50:04.042Z,12.27
2018-08-30T01:52:07.237Z,11.10
2018-08-30T01:54:10.462Z,12.10
2018-08-30T01:56:13.632Z,11.90
2018-08-30T01:58:16.824Z,9.20
2018-08-30T02:00:20.748Z,10.30
2018-08-30T02:02:23.985Z,11.53
2018-08-30T02:04:27.182Z,9.97
2018-08-30T02:06:30.763Z,10.50
2018-08-30T02:08:33.976Z,10.77
2018-08-30T02:10:37.552Z,8.97
2018-08-30T02:12:40.751Z,10.97
2018-08-30T02:14:43.918Z,11.77
2018-08-30T02:16:47.445Z,8.87
2018-08-30T02:18:51.172Z,10.83
2018-08-30T02:20:54.357Z,10.03
2018-08-30T02:22:57.561Z,11.53
2018-08-30T02:25:00.773Z,10.13
2018-08-30T02:27:04.062Z,11.10
2018-08-30T02:29:07.425Z,10.20
2018-08-30T02:31:10.685Z,10.80
2018-08-30T02:33:14.276Z,11.13
2018-08-30T02:35:17.512Z,6.07
2018-08-30T02:37:20.960Z,9.20
2018-08-30T02:39:24.247Z,12.23
2018-08-30T02:41:27.683Z,12.40
2018-08-30T02:43:31.388Z,13.40
2018-08-30T02:45:34.629Z,13.33
2018-08-30T02:47:37.844Z,12.60
2018-08-30T02:49:41.635Z,11.70
2018-08-30T02:51:44.853Z,12.60
2018-08-30T02:53:48.033Z,11.37
2018-08-30T02:55:51.224Z,10.30
2018-08-30T02:57:55.189Z,8.67
2018-08-30T02:59:58.364Z,12.07
2018-08-30T03:02:01.971Z,11.73
2018-08-30T03:04:05.923Z,12.40
2018-08-30T03:06:09.109Z,8.27
2018-08-30T03:08:12.719Z,11.10
2018-08-30T03:10:15.892Z,16.60
2018-08-30T03:12:19.533Z,13.17
2018-08-30T03:14:22.844Z,12.70
2018-08-30T03:16:26.077Z,12.60
2018-08-30T03:18:29.628Z,14.40
2018-08-30T03:20:32.905Z,10.20
2018-08-30T03:22:37.479Z,14.73
2018-08-30T03:24:41.005Z,14.97
2018-08-30T03:26:44.247Z,15.40
2018-08-30T03:28:47.832Z,14.97
2018-08-30T03:30:51.127Z,13.80
2018-08-30T03:32:54.477Z,15.60
2018-08-30T03:34:58.590Z,11.57
2018-08-30T03:37:01.776Z,17.73
2018-08-30T03:39:06.224Z,15.67
2018-08-30T03:41:09.389Z,13.97
2018-08-30T03:43:13.161Z,16.40
2018-08-30T03:45:16.368Z,14.67
2018-08-30T03:47:19.595Z,16.23
2018-08-30T03:49:22.804Z,17.60
2018-08-30T03:51:26.430Z,18.03
2018-08-30T03:53:29.838Z,19.30
2018-08-30T03:55:33.033Z,18.00
2018-08-30T03:57:36.276Z,17.93
2018-08-30T03:59:39.862Z,11.83
2018-08-30T04:01:43.264Z,17.77
2018-08-30T04:03:46.516Z,17.00
2018-08-30T04:05:50.083Z,17.47
2018-08-30T04:07:53.327Z,17.17
2018-08-30T04:09:56.549Z,18.30
2018-08-30T04:11:59.756Z,18.20
2018-08-30T04:14:03.506Z,19.10
2018-08-30T04:16:07.048Z,18.27
2018-08-30T04:18:10.565Z,17.90
2018-08-30T04:20:14.076Z,15.37
2018-08-30T04:22:17.629Z,16.80
2018-08-30T04:24:21.064Z,16.50
2018-08-30T04:26:24.256Z,16.70
2018-08-30T04:28:27.416Z,20.23
2018-08-30T04:30:31.332Z,18.70
2018-08-30T04:32:34.521Z,19.63
2018-08-30T04:34:37.888Z,18.60
2018-08-30T04:36:41.440Z,18.00
2018-08-30T04:38:45.308Z,16.70
2018-08-30T04:40:48.837Z,19.57
2018-08-30T04:42:52.169Z,20.77
2018-08-30T04:44:55.670Z,20.80
2018-08-30T04:46:58.848Z,19.47
2018-08-30T04:49:02.353Z,20.57
2018-08-30T04:51:06.176Z,20.80
2018-08-30T04:53:09.344Z,18.97
2018-08-30T04:55:12.589Z,19.77
2018-08-30T04:57:15.804Z,21.03
2018-08-30T04:59:18.967Z,21.00
2018-08-30T05:01:22.704Z,17.83
2018-08-30T05:03:25.900Z,20.57
2018-08-30T05:05:29.084Z,19.50
2018-08-30T05:07:32.299Z,12.87
2018-08-30T05:09:35.476Z,19.13
2018-08-30T05:11:38.679Z,20.67
2018-08-30T05:13:42.232Z,20.97
2018-08-30T05:15:46.300Z,21.50
2018-08-30T05:17:49.465Z,17.73
2018-08-30T05:19:52.952Z,20.33
2018-08-30T05:21:56.787Z,22.13
2018-08-30T05:24:00.353Z,23.47
2018-08-30T05:26:04.040Z,21.07
2018-08-30T05:28:07.797Z,22.03
2018-08-30T05:30:10.980Z,20.70
2018-08-30T05:32:14.214Z,22.03
2018-08-30T05:34:17.419Z,23.53
2018-08-30T05:36:20.620Z,21.10
2018-08-30T05:38:24.108Z,23.60
2018-08-30T05:40:27.308Z,20.17
2018-08-30T05:42:30.875Z,16.17
2018-08-30T05:44:34.142Z,22.27
2018-08-30T05:46:37.493Z,19.60
2018-08-30T05:48:40.915Z,23.50
2018-08-30T05:50:45.072Z,21.43
2018-08-30T05:52:48.245Z,20.30
2018-08-30T05:54:51.740Z,20.27
2018-08-30T05:56:55.505Z,21.77
2018-08-30T05:58:58.713Z,21.13
2018-08-30T06:01:01.914Z,20.10
2018-08-30T06:03:05.128Z,20.50
2018-08-30T06:05:08.665Z,19.97
2018-08-30T06:07:11.906Z,19.60
2018-08-30T06:09:15.228Z,18.87
2018-08-30T06:11:18.393Z,19.83
2018-08-30T06:13:21.724Z,20.80
2018-08-30T06:15:24.899Z,17.67
2018-08-30T06:17:28.060Z,21.20
2018-08-30T06:19:31.600Z,19.50
2018-08-30T06:21:34.788Z,13.40
2018-08-30T06:23:38.057Z,18.87
2018-08-30T06:25:41.313Z,21.90
2018-08-30T06:27:44.534Z,19.10
2018-08-30T06:29:48.033Z,11.47
2018-08-30T06:31:51.228Z,19.47
2018-08-30T06:33:54.404Z,17.30
2018-08-30T06:35:57.629Z,16.70
2018-08-30T06:38:01.253Z,17.87
2018-08-30T06:40:04.456Z,17.57
2018-08-30T06:42:07.642Z,15.33
2018-08-30T06:44:10.896Z,14.50
2018-08-30T06:46:14.089Z,17.73
2018-08-30T06:48:17.351Z,9.47
2018-08-30T06:50:20.540Z,17.00
2018-08-30T06:52:23.708Z,15.57
2018-08-30T06:54:26.884Z,16.50
2018-08-30T06:56:30.294Z,16.20
2018-08-30T06:58:33.621Z,17.30
2018-08-30T07:00:36.970Z,18.00
2018-08-30T07:02:40.383Z,16.90
2018-08-30T07:04:44.073Z,16.50
2018-08-30T07:06:47.288Z,17.37
2018-08-30T07:08:50.505Z,16.70
2018-08-30T07:10:53.726Z,15.57
2018-08-30T07:12:56.916Z,14.37
2018-08-30T07:15:00.143Z,16.10
2018-08-30T07:17:04.166Z,19.80
2018-08-30T07:19:07.348Z,16.13
2018-08-30T07:21:10.804Z,17.37
2018-08-30T07:23:14.168Z,19.57
2018-08-30T07:25:17.351Z,18.17
2018-08-30T07:27:21.082Z,15.90
2018-08-30T07:29:24.614Z,16.73
2018-08-30T07:31:27.899Z,11.17
2018-08-30T07:33:31.110Z,17.53
2018-08-30T07:35:34.295Z,17.03
2018-08-30T07:37:37.545Z,16.60
2018-08-30T07:39:40.709Z,17.43
2018-08-30T07:41:44.246Z,17.20
2018-08-30T07:43:47.968Z,15.00
2018-08-30T07:45:51.161Z,17.63
2018-08-30T07:47:54.341Z,14.87
2018-08-30T07:49:57.685Z,15.67
2018-08-30T07:52:01.209Z,13.77
2018-08-30T07:54:04.716Z,16.17
2018-08-30T07:56:08.299Z,16.83
2018-08-30T07:58:12.120Z,9.80
2018-08-30T08:00:15.322Z,11.43
2018-08-30T08:02:18.828Z,13.53
2018-08-30T08:04:22.032Z,15.70
2018-08-30T08:06:25.236Z,14.73
2018-08-30T08:08:28.624Z,14.47
2018-08-30T08:10:31.842Z,15.20
2018-08-30T08:12:35.040Z,14.80
2018-08-30T08:14:38.444Z,14.93
2018-08-30T08:16:41.628Z,9.90
2018-08-30T08:18:44.858Z,13.57
2018-08-30T08:20:48.057Z,14.47
2018-08-30T08:22:51.284Z,14.50
2018-08-30T08:24:54.590Z,15.87
2018-08-30T08:26:58.089Z,15.20
2018-08-30T08:29:01.284Z,15.07
2018-08-30T08:31:05.195Z,15.67
2018-08-30T08:33:08.597Z,17.00
2018-08-30T08:35:11.780Z,15.00
2018-08-30T08:37:15.311Z,13.07
2018-08-30T08:39:18.752Z,13.97
2018-08-30T08:41:21.973Z,14.97
2018-08-30T08:43:25.140Z,15.50
2018-08-30T08:45:28.370Z,15.87
2018-08-30T08:47:31.573Z,15.17
2018-08-30T08:49:34.828Z,16.40
2018-08-30T08:51:38.028Z,13.87
2018-08-30T08:53:41.521Z,14.10
2018-08-30T08:55:44.877Z,15.90
2018-08-30T08:57:48.087Z,17.00
2018-08-30T08:59:51.679Z,15.20
2018-08-30T09:01:54.900Z,16.30
2018-08-30T09:03:58.636Z,15.97
2018-08-30T09:06:01.824Z,15.20
2018-08-30T09:08:05.746Z,15.10
2018-08-30T09:10:09.229Z,15.87
2018-08-30T09:12:12.912Z,14.80
2018-08-30T09:14:16.477Z,16.20
2018-08-30T09:16:20.016Z,15.47
2018-08-30T09:18:23.502Z,15.03
2018-08-30T09:20:26.984Z,17.37
2018-08-30T09:22:30.192Z,16.00
2018-08-30T09:24:33.726Z,15.47
2018-08-30T09:26:36.989Z,14.53
2018-08-30T09:28:40.880Z,16.03
2018-08-30T09:30:44.087Z,11.47
2018-08-30T09:32:47.330Z,11.40
2018-08-30T09:34:50.504Z,11.47
2018-08-30T09:36:54.061Z,13.63
2018-08-30T09:38:57.252Z,13.40
2018-08-30T09:41:00.765Z,16.07
2018-08-30T09:43:04.291Z,14.43
2018-08-30T09:45:07.465Z,7.13
2018-08-30T09:47:10.973Z,8.70
2018-08-30T09:49:14.215Z,12.20
2018-08-30T09:51:17.749Z,11.63
2018-08-30T09:53:20.967Z,11.60
2018-08-30T09:55:24.157Z,13.87
2018-08-30T09:57:27.376Z,13.77
2018-08-30T09:59:30.743Z,13.20
2018-08-30T10:01:39.299Z,12.87
2018-08-30T10:03:42.991Z,13.90
2018-08-30T10:05:46.395Z,12.80
2018-08-30T10:07:49.572Z,11.70
2018-08-30T10:09:53.132Z,12.37
2018-08-30T10:11:56.343Z,10.20
2018-08-30T10:13:59.209Z,10.27
2018-08-30T10:16:02.834Z,10.57
2018-08-30T10:18:06.496Z,10.80
2018-08-30T10:20:09.692Z,11.80
2018-08-30T10:22:12.956Z,12.67
2018-08-30T10:24:16.148Z,11.40
2018-08-30T10:26:19.336Z,12.57
2018-08-30T10:28:22.711Z,10.37
2018-08-30T10:30:26.078Z,8.30
2018-08-30T10:32:29.605Z,10.17
2018-08-30T10:34:33.334Z,9.43
2018-08-30T10:36:36.501Z,10.60
2018-08-30T10:38:39.690Z,8.60
2018-08-30T10:40:43.235Z,8.80
2018-08-30T10:42:46.639Z,7.60
2018-08-30T10:44:50.003Z,9.43
2018-08-30T10:46:53.568Z,10.30
2018-08-30T10:48:56.756Z,10.33
2018-08-30T10:51:00.360Z,10.20
2018-08-30T10:53:04.052Z,11.40
2018-08-30T10:55:07.631Z,12.60
2018-08-30T10:57:10.829Z,10.20
2018-08-30T10:59:14.350Z,12.90
2018-08-30T11:01:17.860Z,12.77
2018-08-30T11:03:21.039Z,11.20
2018-08-30T11:05:24.624Z,14.27
2018-08-30T11:07:27.829Z,13.23
2018-08-30T11:09:31.021Z,14.90
2018-08-30T11:11:35.017Z,13.47
2018-08-30T11:13:38.852Z,14.37
2018-08-30T11:15:42.708Z,9.33
2018-08-30T11:17:46.280Z,11.93
2018-08-30T11:19:49.445Z,14.63
2018-08-30T11:21:52.977Z,16.63
2018-08-30T11:23:57.009Z,15.13
2018-08-30T11:26:00.228Z,13.70
2018-08-30T11:28:03.749Z,15.90
2018-08-30T11:30:07.459Z,13.90
2018-08-30T11:32:10.984Z,14.80
2018-08-30T11:34:14.256Z,11.17
2018-08-30T11:36:17.464Z,15.27
2018-08-30T11:38:20.652Z,10.87
2018-08-30T11:40:23.898Z,12.40
2018-08-30T11:42:27.507Z,10.23
2018-08-30T11:44:30.853Z,10.30
2018-08-30T11:46:34.684Z,7.37
2018-08-30T11:48:37.876Z,12.77
2018-08-30T11:50:41.396Z,9.07
2018-08-30T11:52:44.693Z,9.37
2018-08-30T11:54:48.409Z,13.27
2018-08-30T11:56:51.947Z,8.70
2018-08-30T11:58:55.389Z,7.90
2018-08-30T12:00:59.194Z,8.67
2018-08-30T12:03:03.149Z,9.50
2018-08-30T12:05:07.212Z,11.50
2018-08-30T12:07:10.462Z,9.40
2018-08-30T12:09:15.016Z,10.80
2018-08-30T12:11:18.681Z,8.03
2018-08-30T12:13:21.976Z,7.53
2018-08-30T12:15:25.422Z,9.30
2018-08-30T12:17:28.656Z,9.33
2018-08-30T12:19:32.460Z,9.33
2018-08-30T12:21:35.955Z,9.43
2018-08-30T12:23:39.796Z,7.40
2018-08-30T12:25:42.964Z,6.70
2018-08-30T12:27:46.151Z,6.93
2018-08-30T12:29:49.794Z,8.43
2018-08-30T12:31:53.200Z,7.90
2018-08-30T12:33:56.588Z,5.47
2018-08-30T12:36:00.180Z,8.10
2018-08-30T12:38:03.679Z,5.30
2018-08-30T12:40:07.321Z,5.67
2018-08-30T12:42:10.942Z,7.10
2018-08-30T12:44:15.143Z,6.20
2018-08-30T12:46:18.869Z,5.63
2018-08-30T12:48:22.258Z,7.57
2018-08-30T12:50:26.076Z,5.17
2018-08-30T12:52:29.405Z,6.20
2018-08-30T12:54:32.754Z,5.43
2018-08-30T12:56:36.793Z,5.60
2018-08-30T12:58:40.489Z,5.77
2018-08-30T13:00:44.334Z,4.30
2018-08-30T13:02:47.749Z,4.33
2018-08-30T13:04:51.169Z,4.30
2018-08-30T13:06:56.178Z,5.67
2018-08-30T13:08:59.762Z,5.63
2018-08-30T13:11:03.132Z,6.03
2018-08-30T13:13:06.817Z,4.80
2018-08-30T13:15:10.646Z,7.23
2018-08-30T13:17:13.772Z,5.90
2018-08-30T13:19:17.403Z,6.30
2018-08-30T13:21:20.802Z,5.10
2018-08-30T13:23:24.176Z,7.00
2018-08-30T13:25:27.953Z,6.90
2018-08-30T13:27:31.696Z,6.03
2018-08-30T13:29:35.455Z,5.70
2018-08-30T13:31:38.918Z,5.40
2018-08-30T13:33:42.440Z,5.80
2018-08-30T13:35:45.798Z,6.27
2018-08-30T13:37:49.218Z,5.07
2018-08-30T13:39:53.189Z,5.40
2018-08-30T13:41:56.718Z,7.27
2018-08-30T13:44:00.390Z,8.03
2018-08-30T13:46:04.110Z,4.43
2018-08-30T13:48:07.964Z,6.77
2018-08-30T13:50:11.565Z,5.43
2018-08-30T13:52:14.993Z,5.70
2018-08-30T13:54:18.859Z,6.57
2018-08-30T13:56:23.097Z,6.80
2018-08-30T13:58:26.559Z,6.13
2018-08-30T14:00:30.469Z,7.50
2018-08-30T14:02:33.417Z,6.43
2018-08-30T14:04:36.866Z,5.23
2018-08-30T14:06:40.700Z,5.60
2018-08-30T14:08:44.004Z,6.63
2018-08-30T14:10:47.378Z,5.90
2018-08-30T14:12:51.095Z,5.90
2018-08-30T14:14:54.223Z,5.47
2018-08-30T14:16:57.467Z,7.40
2018-08-30T14:19:00.657Z,6.67
2018-08-30T14:21:04.106Z,5.20
2018-08-30T14:23:07.293Z,4.40
2018-08-30T14:25:10.474Z,5.30
2018-08-30T14:27:13.656Z,4.37
2018-08-30T14:29:16.885Z,4.80
2018-08-30T14:31:20.258Z,4.20
2018-08-30T14:33:23.461Z,4.30
2018-08-30T14:35:26.624Z,2.43
2018-08-30T14:37:29.854Z,3.90
2018-08-30T14:39:33.321Z,4.43
2018-08-30T14:41:36.723Z,4.47
2018-08-30T14:43:40.056Z,2.90
2018-08-30T14:45:43.257Z,3.60
2018-08-30T14:47:46.581Z,4.23
2018-08-30T14:49:50.288Z,3.73
2018-08-30T14:51:53.893Z,4.60
2018-08-30T14:53:57.398Z,5.57
2018-08-30T14:56:00.632Z,4.77
2018-08-30T14:58:03.838Z,4.57
2018-08-30T15:00:07.436Z,4.60
2018-08-30T15:02:10.763Z,4.00
2018-08-30T15:04:14.320Z,2.90
2018-08-30T15:06:17.772Z,3.20
2018-08-30T15:08:21.118Z,2.30
2018-08-30T15:10:24.353Z,2.60
2018-08-30T15:12:28.091Z,3.83
2018-08-30T15:14:31.303Z,2.93
2018-08-30T15:16:34.836Z,2.03
2018-08-30T15:18:38.392Z,2.60
2018-08-30T15:20:41.637Z,1.93
2018-08-30T15:22:44.976Z,2.07
2018-08-30T15:24:48.652Z,2.90
2018-08-30T15:26:52.132Z,2.43
2018-08-30T15:28:55.292Z,2.30
2018-08-30T15:30:58.529Z,2.77
2018-08-30T15:33:01.973Z,2.33
2018-08-30T15:35:05.540Z,2.50
2018-08-30T15:37:09.237Z,1.63
2018-08-30T15:39:12.996Z,1.50
2018-08-30T15:41:16.746Z,2.13
2018-08-30T15:43:20.324Z,2.87
2018-08-30T15:45:23.727Z,2.47
2018-08-30T15:47:27.225Z,3.17
2018-08-30T15:49:31.009Z,2.07
2018-08-30T15:51:34.344Z,1.90
2018-08-30T15:53:37.777Z,1.77
2018-08-30T15:55:41.620Z,2.30
2018-08-30T15:57:45.151Z,1.97
2018-08-30T15:59:48.532Z,3.10
2018-08-30T16:01:51.924Z,1.50
2018-08-30T16:03:55.217Z,2.50
2018-08-30T16:05:58.592Z,1.23
2018-08-30T16:08:02.329Z,2.93
2018-08-30T16:10:06.466Z,1.80
2018-08-30T16:12:09.733Z,1.97
2018-08-30T16:14:14.808Z,1.80
2018-08-30T16:16:18.232Z,2.23
2018-08-30T16:18:21.843Z,2.07
2018-08-30T16:20:25.109Z,3.07
2018-08-30T16:22:40.392Z,1.60
2018-08-30T16:24:44.238Z,1.77
2018-08-30T16:26:47.680Z,1.77
2018-08-30T16:28:51.056Z,1.93
2018-08-30T16:30:54.425Z,1.63
2018-08-30T16:32:58.356Z,0.83
2018-08-30T16:35:01.734Z,1.80
2018-08-30T16:37:06.219Z,1.37
2018-08-30T16:39:10.600Z,1.50
2018-08-30T16:41:14.105Z,1.60
2018-08-30T16:43:18.266Z,2.53
2018-08-30T16:45:22.092Z,2.53
2018-08-30T16:47:25.480Z,2.97
2018-08-30T16:49:29.069Z,2.13
2018-08-30T16:51:32.448Z,1.60
2018-08-30T16:53:35.637Z,1.70
2018-08-30T16:55:39.112Z,1.30
2018-08-30T16:57:42.728Z,1.33
2018-08-30T16:59:45.901Z,1.50
2018-08-30T17:01:49.296Z,2.27
2018-08-30T17:03:52.660Z,1.70
2018-08-30T17:05:55.940Z,2.00
2018-08-30T17:07:59.512Z,1.70
2018-08-30T17:10:02.928Z,1.50
2018-08-30T17:12:06.472Z,1.97
2018-08-30T17:14:09.884Z,1.20
2018-08-30T17:16:13.392Z,1.53
2018-08-30T17:18:16.770Z,1.10
2018-08-30T17:20:27.648Z,1.50
2018-08-30T17:22:30.856Z,2.40
2018-08-30T17:24:34.237Z,1.20
2018-08-30T17:26:37.437Z,1.50
2018-08-30T17:28:40.832Z,1.63
2018-08-30T17:30:44.204Z,1.87
2018-08-30T17:32:48.006Z,1.00
2018-08-30T17:34:51.337Z,1.30
2018-08-30T17:36:54.601Z,1.37
2018-08-30T17:38:58.020Z,1.20
2018-08-30T17:41:01.453Z,1.40
2018-08-30T17:43:04.716Z,2.20
2018-08-30T17:45:08.099Z,1.63
2018-08-30T17:47:11.675Z,1.70
2018-08-30T17:49:14.920Z,1.33
2018-08-30T17:51:18.356Z,1.37
2018-08-30T17:53:22.094Z,2.23
2018-08-30T17:55:25.572Z,1.63
2018-08-30T17:57:29.404Z,1.33
2018-08-30T17:59:32.879Z,1.60
2018-08-30T18:01:36.305Z,1.27
2018-08-30T18:03:39.576Z,1.47
2018-08-30T18:05:42.901Z,1.73
2018-08-30T18:07:46.291Z,1.63
2018-08-30T18:09:49.672Z,1.50
2018-08-30T18:11:53.068Z,2.03
2018-08-30T18:13:56.272Z,1.50
2018-08-30T18:15:59.447Z,1.70
2018-08-30T18:18:02.748Z,1.70
2018-08-30T18:20:06.317Z,1.70
2018-08-30T18:22:09.767Z,1.70
2018-08-30T18:24:13.085Z,1.83
2018-08-30T18:26:16.479Z,1.80
2018-08-30T18:28:19.649Z,1.83
2018-08-30T18:30:22.928Z,1.63
2018-08-30T18:32:26.094Z,1.50
2018-08-30T18:34:29.290Z,1.60
2018-08-30T18:36:32.477Z,1.70
2018-08-30T18:38:35.685Z,1.90
2018-08-30T18:40:39.013Z,1.37
2018-08-30T18:42:42.256Z,1.13
2018-08-30T18:44:45.413Z,1.37
2018-08-30T18:46:48.593Z,1.47
2018-08-30T18:48:52.122Z,2.00
2018-08-30T18:50:55.296Z,1.50
2018-08-30T18:52:58.503Z,1.40
2018-08-30T18:55:02.197Z,2.00
2018-08-30T18:57:05.393Z,1.17
2018-08-30T18:59:08.852Z,2.87
2018-08-30T19:01:12.118Z,1.80
2018-08-30T19:03:15.680Z,1.70
2018-08-30T19:05:18.855Z,2.07
2018-08-30T19:07:22.381Z,1.53
2018-08-30T19:09:25.604Z,1.87
2018-08-30T19:11:28.788Z,1.83
2018-08-30T19:13:32.253Z,1.83
2018-08-30T19:15:40.912Z,2.27
2018-08-30T19:17:49.819Z,1.50
2018-08-30T19:19:53.315Z,1.43
2018-08-30T19:21:56.892Z,1.60
2018-08-30T19:24:00.070Z,1.40
2018-08-30T19:26:03.760Z,1.10
2018-08-30T19:28:07.340Z,2.47
2018-08-30T19:30:16.133Z,1.50
2018-08-30T19:32:20.084Z,1.60
2018-08-30T19:34:23.272Z,1.83
2018-08-30T19:36:29.768Z,1.50
2018-08-30T19:38:32.971Z,1.30
2018-08-30T19:40:41.587Z,1.90
2018-08-30T19:42:44.816Z,2.80
2018-08-30T19:44:48.238Z,1.40
2018-08-30T19:46:51.467Z,1.80
2018-08-30T19:48:54.676Z,2.13
2018-08-30T19:50:58.503Z,1.83
2018-08-30T19:53:01.873Z,3.33
2018-08-30T19:55:05.389Z,1.90
2018-08-30T19:57:08.577Z,1.60
2018-08-30T19:59:11.801Z,2.40
2018-08-30T20:01:15.192Z,1.70
2018-08-30T20:03:18.652Z,1.23
2018-08-30T20:05:22.211Z,2.03
2018-08-30T20:07:25.629Z,2.50
2018-08-30T20:09:28.972Z,1.53
2018-08-30T20:11:32.487Z,2.63
2018-08-30T20:13:35.916Z,1.83
2018-08-30T20:15:39.473Z,2.80
2018-08-30T20:17:42.868Z,1.67
2018-08-30T20:19:46.055Z,1.83
2018-08-30T20:21:49.252Z,1.37
2018-08-30T20:23:52.585Z,1.40
2018-08-30T20:25:55.814Z,1.27
2018-08-30T20:27:59.074Z,2.03
2018-08-30T20:30:03.084Z,1.90
2018-08-30T20:32:07.196Z,2.27
2018-08-30T20:34:10.576Z,1.57
2018-08-30T20:36:14.151Z,2.03
2018-08-30T20:38:17.336Z,2.07
2018-08-30T20:40:20.562Z,1.33
2018-08-30T20:42:24.005Z,1.97
2018-08-30T20:44:27.336Z,1.00
2018-08-30T20:46:30.595Z,1.53
2018-08-30T20:48:33.928Z,2.20
2018-08-30T20:50:37.496Z,1.87
2018-08-30T20:52:40.672Z,2.00
2018-08-30T20:54:43.858Z,2.17
2018-08-30T20:56:47.137Z,1.87
2018-08-30T20:58:50.300Z,1.73
2018-08-30T21:00:53.819Z,1.37
2018-08-30T21:02:57.253Z,1.67
2018-08-30T21:05:01.528Z,1.30
2018-08-30T21:07:05.464Z,1.30
2018-08-30T21:09:09.418Z,1.60
2018-08-30T21:11:13.164Z,2.07
2018-08-30T21:13:16.335Z,1.50
2018-08-30T21:15:19.519Z,1.90
2018-08-30T21:17:23.037Z,1.53
2018-08-30T21:19:26.223Z,1.70
2018-08-30T21:21:29.441Z,1.83
2018-08-30T21:23:32.758Z,1.23
2018-08-30T21:25:35.973Z,1.00
2018-08-30T21:27:39.275Z,1.97
2018-08-30T21:29:42.704Z,1.80
2018-08-30T21:31:45.933Z,1.60
2018-08-30T21:33:49.121Z,1.97
2018-08-30T21:35:52.379Z,1.67
2018-08-30T21:37:55.773Z,1.60
2018-08-30T21:39:59.612Z,1.50
2018-08-30T21:42:02.785Z,1.73
2018-08-30T21:44:06.597Z,1.90
2018-08-30T21:46:09.797Z,1.60
2018-08-30T21:48:13.333Z,1.93
2018-08-30T21:50:16.720Z,1.60
2018-08-30T21:52:20.406Z,1.60
2018-08-30T21:54:23.598Z,1.50
2018-08-30T21:56:26.820Z,4.80
2018-08-30T21:58:29.992Z,1.80
2018-08-30T22:00:33.188Z,1.33
2018-08-30T22:02:36.403Z,1.60
2018-08-30T22:04:40.096Z,2.50
2018-08-30T22:06:43.464Z,1.53
2018-08-30T22:08:47.014Z,2.00
2018-08-30T22:10:50.203Z,1.50
2018-08-30T22:12:53.436Z,1.90
2018-08-30T22:14:56.589Z,2.10
2018-08-30T22:17:00.699Z,1.77
2018-08-30T22:19:04.248Z,1.20
2018-08-30T22:21:07.404Z,1.80
2018-08-30T22:23:10.580Z,1.80
2018-08-30T22:25:13.825Z,1.50
2018-08-30T22:27:17.342Z,2.40
2018-08-30T22:29:20.526Z,1.77
2018-08-30T22:31:24.231Z,1.80
2018-08-30T22:33:27.466Z,1.77
2018-08-30T22:35:30.971Z,3.03
2018-08-30T22:37:34.184Z,2.03
2018-08-30T22:39:37.412Z,1.43
2018-08-30T22:41:40.605Z,1.53
2018-08-30T22:43:43.785Z,1.80
2018-08-30T22:45:47.260Z,1.70
2018-08-30T22:47:50.532Z,2.10
2018-08-30T22:49:53.724Z,2.17
2018-08-30T22:51:57.238Z,2.40
2018-08-30T22:54:00.469Z,1.60
2018-08-30T22:56:03.962Z,1.50
2018-08-30T22:58:07.353Z,1.80
2018-08-30T23:00:10.541Z,1.33
2018-08-30T23:02:13.716Z,1.50
2018-08-30T23:04:17.083Z,1.70
2018-08-30T23:06:20.283Z,1.50
2018-08-30T23:08:23.668Z,1.30
2018-08-30T23:10:27.152Z,1.50
2018-08-30T23:12:30.404Z,1.40
2018-08-30T23:14:34.244Z,1.63
2018-08-30T23:16:37.748Z,1.37
2018-08-30T23:18:40.968Z,1.37
2018-08-30T23:20:44.816Z,1.63
2018-08-30T23:22:48.640Z,1.47
2018-08-30T23:24:51.890Z,1.73
2018-08-30T23:26:55.066Z,1.40
2018-08-30T23:28:58.602Z,1.20
2018-08-30T23:31:01.800Z,1.97
2018-08-30T23:33:05.824Z,1.60
2018-08-30T23:35:09.024Z,1.90
2018-08-30T23:37:12.588Z,1.80
2018-08-30T23:39:15.803Z,1.50
2018-08-30T23:41:19.333Z,1.60
2018-08-30T23:43:22.728Z,1.70
2018-08-30T23:45:25.948Z,2.00
2018-08-30T23:47:29.141Z,1.93
2018-08-30T23:49:32.755Z,1.93
2018-08-30T23:51:36.264Z,1.40
2018-08-30T23:53:39.501Z,2.40
2018-08-30T23:55:42.690Z,1.87
2018-08-30T23:57:57.455Z,1.87
